Time;durP1;ratioP1;P1;durP2;ratioP2;P2;SDS_P1;SDS_P2;PMS_P1;PMS_P2;Temp;Humidity;BMP_temperature;BMP_pressure;BME280_temperature;BME280_humidity;BME280_pressure;Samples;Min_cycle;Max_cycle;Signal;HPM_P1;HPM_P2
2023/05/05 00:00:41;;;;;;;2.05;1.45;;;;;;;18.48;42.18;100021.03;4487197;31;33517;-61
2023/05/05 00:03:09;;;;;;;3.67;1.77;;;;;;;18.45;42.24;100023.22;4495340;31;33813;-63
2023/05/05 00:05:36;;;;;;;2.70;1.62;;;;;;;18.59;42.10;100028.09;4497598;31;33999;-62
2023/05/05 00:08:04;;;;;;;3.78;2.45;;;;;;;18.53;42.14;100024.16;4496543;31;33688;-62
2023/05/05 00:10:31;;;;;;;3.53;1.77;;;;;;;18.42;42.79;100021.69;4490277;31;33988;-64
2023/05/05 00:12:59;;;;;;;3.53;1.67;;;;;;;18.38;42.74;100021.16;4495135;31;33822;-64
2023/05/05 00:15:26;;;;;;;2.20;1.58;;;;;;;18.36;42.99;100023.19;4496405;31;33660;-62
2023/05/05 00:17:54;;;;;;;6.07;2.47;;;;;;;18.25;43.23;100023.41;4494480;31;33356;-63
2023/05/05 00:20:21;;;;;;;2.45;1.65;;;;;;;18.22;43.31;100023.75;4498379;31;34061;-62
2023/05/05 00:22:49;;;;;;;3.58;1.87;;;;;;;18.03;43.86;100029.34;4492626;31;33953;-64
2023/05/05 00:25:17;;;;;;;5.43;2.37;;;;;;;18.07;43.97;100017.16;4498363;31;34902;-62
2023/05/05 00:27:44;;;;;;;6.50;2.50;;;;;;;18.05;43.51;100019.22;4486893;31;34554;-65
2023/05/05 00:30:12;;;;;;;1.35;1.23;;;;;;;18.06;43.24;100020.91;4485292;31;34805;-63
2023/05/05 00:32:40;;;;;;;3.35;1.95;;;;;;;18.02;43.08;100019.50;4488154;31;34856;-64
2023/05/05 00:35:08;;;;;;;3.62;1.73;;;;;;;17.96;43.19;100014.72;4495406;31;34049;-65
2023/05/05 00:37:35;;;;;;;1.75;1.05;;;;;;;17.88;43.24;100016.34;4486626;31;35206;-63
2023/05/05 00:40:03;;;;;;;3.03;2.20;;;;;;;17.81;43.16;100017.09;4493896;31;34880;-62
2023/05/05 00:42:41;;;;;;;2.33;1.58;;;;;;;17.81;43.41;100017.09;4490023;31;33827;-64
2023/05/05 00:45:10;;;;;;;1.95;1.23;;;;;;;17.68;43.37;100015.59;4488072;31;33000;-62
2023/05/05 00:47:38;;;;;;;2.80;1.75;;;;;;;17.64;43.84;100021.47;4495286;31;33136;-63
2023/05/05 00:50:07;;;;;;;4.05;1.67;;;;;;;17.63;43.61;100017.94;4485259;31;34588;-62
2023/05/05 00:52:36;;;;;;;2.72;1.90;;;;;;;17.56;43.92;100015.97;4495324;31;33290;-62
2023/05/05 00:55:04;;;;;;;2.37;1.95;;;;;;;17.59;43.70;100008.44;4498467;31;34028;-61
2023/05/05 00:57:32;;;;;;;3.67;1.87;;;;;;;17.52;43.88;100012.72;4496772;31;33762;-63
2023/05/05 01:00:01;;;;;;;2.90;1.65;;;;;;;17.37;44.29;100004.28;4497285;31;34893;-62
2023/05/05 01:02:30;;;;;;;2.90;1.80;;;;;;;17.59;43.59;100004.84;4496925;31;34116;-62
2023/05/05 01:04:58;;;;;;;3.78;2.12;;;;;;;17.53;43.67;100003.63;4489892;31;34236;-62
2023/05/05 01:07:41;;;;;;;3.30;1.65;;;;;;;17.41;43.61;99997.56;4483539;31;33341;-65
2023/05/05 01:10:21;;;;;;;2.83;2.28;;;;;;;17.59;43.07;100003.00;4489161;31;33939;-63
2023/05/05 01:13:15;;;;;;;3.17;1.65;;;;;;;17.57;43.04;100005.00;4494885;31;34943;-65
2023/05/05 01:16:19;;;;;;;2.30;1.23;;;;;;;17.59;43.17;100002.13;4483571;31;33777;-65
2023/05/05 01:18:50;;;;;;;3.65;1.85;;;;;;;17.51;43.25;99993.94;4488430;31;33626;-63
2023/05/05 01:21:40;;;;;;;2.83;1.70;;;;;;;17.44;43.21;99993.72;4497200;31;34773;-62
2023/05/05 01:24:10;;;;;;;4.20;1.75;;;;;;;17.23;43.77;99992.13;4490438;31;33919;-63
2023/05/05 01:26:59;;;;;;;6.30;2.25;;;;;;;17.24;43.78;99993.00;4486029;31;33295;-63
2023/05/05 01:29:51;;;;;;;2.42;1.42;;;;;;;17.31;43.62;99987.81;4482887;31;33525;-63
2023/05/05 01:32:25;;;;;;;1.65;1.17;;;;;;;17.27;43.81;99994.50;4490449;31;33884;-63
2023/05/05 01:34:59;;;;;;;3.20;1.27;;;;;;;17.21;44.06;99994.13;4489096;31;33965;-62
2023/05/05 01:37:44;;;;;;;1.90;1.45;;;;;;;17.19;44.08;99990.72;4497369;31;33635;-62
2023/05/05 01:40:14;;;;;;;1.62;0.98;;;;;;;17.14;44.35;100003.00;4484271;31;34848;-62
2023/05/05 01:42:42;;;;;;;3.12;1.67;;;;;;;17.15;44.24;99986.63;4481978;32;35097;-62
2023/05/05 01:45:11;;;;;;;3.10;1.42;;;;;;;17.10;44.48;99997.03;4480450;31;35253;-62
2023/05/05 01:47:41;;;;;;;4.85;1.60;;;;;;;17.08;44.38;99996.34;4487157;31;33840;-62
2023/05/05 01:50:10;;;;;;;2.12;1.45;;;;;;;16.91;44.58;99989.88;4486624;31;33547;-64
2023/05/05 01:52:38;;;;;;;3.53;1.77;;;;;;;16.98;44.56;99998.22;4487121;31;33761;-62
2023/05/05 01:55:08;;;;;;;3.40;1.85;;;;;;;16.89;44.66;99994.59;4497230;31;33882;-61
2023/05/05 01:57:36;;;;;;;1.90;0.95;;;;;;;16.68;45.23;99996.62;4486581;31;34830;-65
2023/05/05 02:00:04;;;;;;;4.22;2.85;;;;;;;16.85;44.86;99990.47;4482390;31;33539;-65
2023/05/05 02:02:43;;;;;;;3.53;2.28;;;;;;;16.86;44.69;99992.19;4496883;31;34957;-62
2023/05/05 02:05:11;;;;;;;2.85;1.58;;;;;;;16.81;44.92;99985.50;4496727;31;34352;-62
2023/05/05 02:07:39;;;;;;;2.30;1.08;;;;;;;16.88;44.69;99992.87;4490628;31;34609;-62
2023/05/05 02:10:07;;;;;;;3.90;2.17;;;;;;;16.79;44.53;99993.78;4493319;31;34843;-62
2023/05/05 02:12:36;;;;;;;2.65;1.02;;;;;;;16.71;45.07;99989.06;4498430;31;34844;-65
2023/05/05 02:15:04;;;;;;;2.15;1.58;;;;;;;16.79;44.85;99979.38;4482993;31;35020;-63
2023/05/05 02:17:32;;;;;;;3.72;2.05;;;;;;;16.87;44.54;99987.63;4480455;31;33797;-62
2023/05/05 02:20:01;;;;;;;3.03;1.70;;;;;;;16.86;44.40;99986.78;4481239;31;34486;-62
2023/05/05 02:22:28;;;;;;;4.47;1.77;;;;;;;16.82;44.87;99995.31;4485123;31;33770;-65
2023/05/05 02:24:56;;;;;;;3.30;1.60;;;;;;;16.83;45.00;99984.38;4481503;31;34431;-66
2023/05/05 02:27:24;;;;;;;4.53;2.35;;;;;;;16.89;44.57;99983.78;4492955;31;34072;-65
2023/05/05 02:29:56;;;;;;;2.72;1.42;;;;;;;16.93;44.67;99985.16;4496813;31;34580;-65
2023/05/05 02:32:33;;;;;;;2.67;1.40;;;;;;;16.92;44.44;99988.88;4483549;31;34729;-62
2023/05/05 02:35:14;;;;;;;4.65;2.05;;;;;;;16.87;44.96;99985.75;4484805;31;33942;-62
2023/05/05 02:37:47;;;;;;;2.83;1.50;;;;;;;16.86;45.22;99978.66;4486223;31;33765;-62
2023/05/05 02:40:19;;;;;;;3.78;1.40;;;;;;;16.80;45.54;99983.81;4496544;31;33509;-62
2023/05/05 02:42:47;;;;;;;3.17;1.95;;;;;;;16.81;45.25;99986.34;4496155;31;33801;-66
2023/05/05 02:45:17;;;;;;;1.10;0.85;;;;;;;16.69;45.47;99985.69;4486607;31;35220;-62
2023/05/05 02:47:45;;;;;;;3.40;2.05;;;;;;;16.69;45.56;99987.50;4493135;31;33162;-64
2023/05/05 02:50:14;;;;;;;1.90;1.42;;;;;;;16.58;45.49;99990.41;4497801;31;33594;-64
2023/05/05 02:52:43;;;;;;;4.03;1.62;;;;;;;16.60;45.18;99983.88;4490020;31;34148;-62
2023/05/05 02:55:11;;;;;;;4.50;2.53;;;;;;;16.52;45.64;99989.12;4496407;31;35102;-62
2023/05/05 02:57:54;;;;;;;2.60;1.70;;;;;;;16.34;45.63;99986.34;4489932;31;33847;-61
2023/05/05 03:00:26;;;;;;;8.05;2.70;;;;;;;16.28;45.58;99989.62;4487383;31;34430;-62
2023/05/05 03:03:14;;;;;;;3.65;1.58;;;;;;;15.97;46.12;99986.25;4486326;31;33649;-66
2023/05/05 03:05:52;;;;;;;4.47;1.67;;;;;;;15.79;46.51;99988.81;4481234;31;34177;-65
2023/05/05 03:08:28;;;;;;;2.28;1.67;;;;;;;15.72;46.74;99985.00;4486196;31;32918;-64
2023/05/05 03:11:04;;;;;;;4.95;2.40;;;;;;;15.86;46.43;99989.97;4485908;31;32981;-62
2023/05/05 03:13:39;;;;;;;2.95;1.87;;;;;;;15.81;46.23;99985.00;4480426;31;33648;-63
2023/05/05 03:16:07;;;;;;;3.10;1.98;;;;;;;15.67;46.94;99989.97;4493786;31;34347;-66
2023/05/05 03:18:39;;;;;;;9.20;1.52;;;;;;;15.64;46.72;99988.38;4494552;31;34905;-62
2023/05/05 03:21:09;;;;;;;3.03;1.87;;;;;;;15.57;46.95;99988.09;4489136;31;32384;-62
2023/05/05 03:23:37;;;;;;;2.17;1.48;;;;;;;15.49;46.86;99989.78;4480857;31;34865;-63
2023/05/05 03:26:06;;;;;;;2.15;1.40;;;;;;;15.53;46.68;99986.66;4492204;31;33816;-62
2023/05/05 03:28:33;;;;;;;2.40;1.42;;;;;;;15.52;46.77;99986.81;4494463;31;33727;-64
2023/05/05 03:31:02;;;;;;;5.28;1.95;;;;;;;15.51;46.77;99982.41;4493725;31;33472;-64
2023/05/05 03:33:30;;;;;;;2.78;1.52;;;;;;;15.52;46.79;99986.81;4491739;31;32673;-62
2023/05/05 03:35:58;;;;;;;4.40;2.37;;;;;;;15.21;47.50;99991.41;4490231;31;32862;-64
2023/05/05 03:38:26;;;;;;;2.65;1.55;;;;;;;15.35;47.23;99999.13;4495050;31;32546;-63
2023/05/05 03:40:54;;;;;;;2.25;1.27;;;;;;;15.44;47.09;99990.22;4496211;31;33497;-62
2023/05/05 03:43:22;;;;;;;3.28;1.37;;;;;;;15.46;47.15;99982.81;4497926;31;33788;-61
2023/05/05 03:45:50;;;;;;;2.22;1.52;;;;;;;15.54;47.15;99985.66;4494998;31;35214;-61
2023/05/05 03:48:17;;;;;;;3.42;2.33;;;;;;;15.52;47.30;99993.03;4488089;31;35246;-62
2023/05/05 03:50:45;;;;;;;2.33;1.45;;;;;;;15.50;47.19;99989.62;4495340;31;34688;-59
2023/05/05 03:53:13;;;;;;;2.62;1.73;;;;;;;15.56;47.16;99988.22;4494262;31;33678;-62
2023/05/05 03:55:41;;;;;;;2.25;1.33;;;;;;;15.43;47.40;99999.28;4496927;31;32823;-61
2023/05/05 03:58:10;;;;;;;4.72;2.83;;;;;;;15.35;47.68;100005.38;4483648;31;34254;-61
2023/05/05 04:00:38;;;;;;;3.22;1.67;;;;;;;15.58;47.63;100005.97;4485964;31;33398;-63
2023/05/05 04:03:06;;;;;;;3.00;1.73;;;;;;;15.59;47.15;100009.50;4494764;31;33798;-63
2023/05/05 04:05:33;;;;;;;5.03;2.05;;;;;;;15.53;47.33;100008.22;4493801;31;32867;-60
2023/05/05 04:08:02;;;;;;;2.25;1.83;;;;;;;15.36;47.76;100006.22;4491986;31;35259;-61
2023/05/05 04:10:30;;;;;;;4.05;1.87;;;;;;;15.45;47.97;100000.00;4495243;31;33429;-61
2023/05/05 04:12:58;;;;;;;3.25;2.30;;;;;;;15.64;47.32;100001.88;4492315;31;32826;-62
2023/05/05 04:15:26;;;;;;;2.10;1.75;;;;;;;15.65;47.38;100005.41;4485247;31;33665;-63
2023/05/05 04:17:54;;;;;;;2.15;1.52;;;;;;;15.76;47.13;100002.59;4491179;31;34285;-62
2023/05/05 04:20:22;;;;;;;5.57;1.95;;;;;;;15.90;46.74;100004.88;4495727;31;34554;-63
2023/05/05 04:22:50;;;;;;;2.83;2.05;;;;;;;15.87;47.91;100005.16;4486748;31;94915;-62
2023/05/05 04:25:19;;;;;;;3.53;1.95;;;;;;;16.14;47.73;99998.19;4494531;31;33395;-62
2023/05/05 04:27:47;;;;;;;8.27;1.67;;;;;;;16.34;46.60;100007.97;4481733;31;34087;-64
2023/05/05 04:30:15;;;;;;;3.03;1.70;;;;;;;16.26;47.36;100007.81;4492641;31;33642;-63
2023/05/05 04:32:42;;;;;;;2.78;1.62;;;;;;;16.12;48.44;100013.69;4496256;31;33018;-62
2023/05/05 04:35:10;;;;;;;2.42;1.48;;;;;;;16.33;48.05;100008.09;4488997;31;33954;-62
2023/05/05 04:37:38;;;;;;;2.15;1.67;;;;;;;16.39;48.49;100019.16;4483357;31;34033;-65
2023/05/05 04:40:07;;;;;;;4.55;1.85;;;;;;;16.77;47.03;100007.44;4495986;31;33592;-62
2023/05/05 04:42:35;;;;;;;1.80;1.10;;;;;;;16.83;46.53;100013.25;4493932;31;34764;-62
2023/05/05 04:45:03;;;;;;;1.95;1.37;;;;;;;16.79;46.26;100015.41;4492980;31;35084;-63
2023/05/05 04:47:35;;;;;;;1.87;1.27;;;;;;;16.86;46.47;100008.41;4496101;31;32729;-61
2023/05/05 04:50:03;;;;;;;2.37;1.70;;;;;;;16.96;46.69;100011.06;4496509;31;34505;-62
2023/05/05 04:52:32;;;;;;;1.83;1.30;;;;;;;17.13;46.32;100020.22;4480620;31;34768;-63
2023/05/05 04:55:00;;;;;;;2.45;1.73;;;;;;;17.22;45.33;100031.00;4488201;31;33964;-61
2023/05/05 04:57:28;;;;;;;2.53;1.60;;;;;;;17.27;45.33;100030.56;4496605;31;32628;-62
2023/05/05 04:59:58;;;;;;;2.47;1.75;;;;;;;17.36;44.83;100020.66;4483953;31;33318;-62
2023/05/05 05:02:26;;;;;;;4.18;2.17;;;;;;;17.43;45.31;100022.63;4486710;31;32195;-63
2023/05/05 05:04:53;;;;;;;1.85;1.23;;;;;;;17.41;46.18;100024.63;4483071;31;34855;-63
2023/05/05 05:07:21;;;;;;;2.95;1.67;;;;;;;17.85;45.61;100018.53;4482734;31;33968;-64
2023/05/05 05:09:49;;;;;;;6.90;2.17;;;;;;;17.90;45.38;100019.75;4492320;31;35003;-63
2023/05/05 05:12:17;;;;;;;2.78;1.73;;;;;;;18.04;45.54;100026.47;4490716;31;33451;-63
2023/05/05 05:14:45;;;;;;;4.35;1.65;;;;;;;18.19;45.61;100032.19;4481925;31;34021;-63
2023/05/05 05:17:12;;;;;;;3.25;1.27;;;;;;;18.39;45.47;100038.25;4486338;31;33565;-64
2023/05/05 05:19:41;;;;;;;2.80;2.25;;;;;;;18.29;45.56;100034.78;4494483;31;33086;-63
2023/05/05 05:22:09;;;;;;;5.10;2.72;;;;;;;18.65;44.75;100041.00;4487562;31;33873;-62
2023/05/05 05:24:37;;;;;;;4.18;2.35;;;;;;;18.98;43.34;100030.37;4480919;32;35985;-63
2023/05/05 05:27:08;;;;;;;7.95;3.10;;;;;;;19.99;41.62;100028.47;4490732;31;33896;-63
2023/05/05 05:29:37;;;;;;;5.75;2.70;;;;;;;20.84;38.99;100032.69;4483573;31;33388;-63
2023/05/05 05:32:05;;;;;;;3.30;1.80;;;;;;;20.52;39.58;100030.91;4487220;31;33889;-63
2023/05/05 05:34:33;;;;;;;3.25;2.17;;;;;;;20.02;39.90;100036.28;4491496;31;33716;-64
2023/05/05 05:37:01;;;;;;;5.37;2.92;;;;;;;19.98;40.56;100037.66;4494089;31;34247;-63
2023/05/05 05:39:29;;;;;;;4.72;2.22;;;;;;;19.68;40.96;100041.00;4496217;31;33216;-63
2023/05/05 05:41:57;;;;;;;4.82;2.75;;;;;;;19.72;40.46;100047.81;4494900;31;34911;-62
2023/05/05 05:44:24;;;;;;;4.78;2.42;;;;;;;19.75;39.73;100053.75;4490273;31;33675;-63
2023/05/05 05:46:52;;;;;;;4.60;2.15;;;;;;;19.64;39.66;100048.62;4489164;31;33933;-64
2023/05/05 05:49:19;;;;;;;2.83;1.73;;;;;;;19.61;39.92;100053.50;4490259;31;33278;-63
2023/05/05 05:51:47;;;;;;;3.25;2.12;;;;;;;19.58;39.06;100048.41;4484599;31;32667;-63
2023/05/05 05:54:15;;;;;;;4.15;2.15;;;;;;;19.51;39.24;100059.06;4495103;31;34119;-64
2023/05/05 05:56:42;;;;;;;4.93;2.33;;;;;;;19.33;39.39;100052.91;4500526;31;34990;-64
2023/05/05 05:59:11;;;;;;;4.80;2.80;;;;;;;19.52;38.92;100058.06;4499376;31;33772;-64
2023/05/05 06:01:39;;;;;;;3.03;1.65;;;;;;;19.49;38.05;100047.53;4488618;31;33639;-64
2023/05/05 06:04:07;;;;;;;2.83;1.77;;;;;;;18.71;38.55;100048.47;4485564;31;34945;-64
2023/05/05 06:06:36;;;;;;;4.12;2.33;;;;;;;18.41;38.44;100055.22;4486163;31;35074;-64
2023/05/05 06:09:04;;;;;;;2.95;1.48;;;;;;;17.74;40.32;100053.91;4486577;31;31939;-64
2023/05/05 06:11:33;;;;;;;3.95;1.98;;;;;;;17.83;40.37;100053.84;4490186;31;34895;-64
2023/05/05 06:14:01;;;;;;;5.80;2.53;;;;;;;18.19;40.20;100051.13;4499956;31;33797;-64
2023/05/05 06:16:29;;;;;;;5.43;2.03;;;;;;;18.46;40.45;100049.31;4490447;31;34018;-64
2023/05/05 06:18:57;;;;;;;3.83;1.75;;;;;;;18.01;40.55;100058.41;4496802;31;34730;-64
2023/05/05 06:21:26;;;;;;;5.78;2.08;;;;;;;17.69;41.90;100044.37;4496536;31;33810;-64
2023/05/05 06:23:54;;;;;;;2.62;1.92;;;;;;;17.31;42.38;100050.87;4498105;31;33883;-64
2023/05/05 06:26:21;;;;;;;4.25;2.47;;;;;;;18.18;41.57;100045.91;4493055;31;33560;-63
2023/05/05 06:28:49;;;;;;;7.22;3.00;;;;;;;17.70;41.98;100053.34;4497929;31;33788;-62
2023/05/05 06:31:17;;;;;;;11.70;3.62;;;;;;;17.77;41.84;100040.09;4497294;31;34922;-63
2023/05/05 06:33:44;;;;;;;3.42;2.20;;;;;;;18.02;41.79;100038.47;4499177;31;35288;-64
2023/05/05 06:36:12;;;;;;;4.20;2.70;;;;;;;17.76;42.60;100039.22;4499695;31;34893;-62
2023/05/05 06:38:40;;;;;;;5.80;3.55;;;;;;;17.97;42.25;100029.94;4499676;31;34667;-64
2023/05/05 06:41:07;;;;;;;4.30;2.20;;;;;;;18.06;42.01;100037.16;4492144;31;34051;-64
2023/05/05 06:43:35;;;;;;;3.03;1.70;;;;;;;17.99;42.22;100041.50;4489934;31;33916;-63
2023/05/05 06:46:04;;;;;;;3.65;2.33;;;;;;;18.32;41.67;100038.03;4488892;31;33789;-62
2023/05/05 06:48:32;;;;;;;3.80;2.28;;;;;;;18.33;41.19;100034.34;4499738;31;32122;-62
2023/05/05 06:50:59;;;;;;;3.60;2.47;;;;;;;18.34;41.75;100041.44;4500127;31;33388;-62
2023/05/05 06:53:27;;;;;;;5.32;2.20;;;;;;;18.61;40.91;100036.87;4493970;31;33981;-64
2023/05/05 06:55:54;;;;;;;17.37;2.90;;;;;;;19.01;40.12;100041.75;4490532;31;34939;-64
2023/05/05 06:58:22;;;;;;;4.00;1.75;;;;;;;19.05;39.78;100034.97;4492724;31;34727;-63
2023/05/05 07:00:49;;;;;;;3.05;2.03;;;;;;;19.18;39.39;100037.25;4489586;31;34852;-63
2023/05/05 07:03:17;;;;;;;5.87;2.62;;;;;;;19.02;39.85;100043.44;4497732;31;33397;-63
2023/05/05 07:05:45;;;;;;;4.10;1.85;;;;;;;19.47;38.75;100036.00;4493406;31;34048;-62
2023/05/05 07:08:12;;;;;;;4.45;2.03;;;;;;;19.52;38.61;100048.06;4484716;32;33492;-61
2023/05/05 07:10:40;;;;;;;4.32;2.40;;;;;;;19.28;38.30;100040.66;4486396;31;32833;-63
2023/05/05 07:13:08;;;;;;;5.97;2.78;;;;;;;19.19;39.38;100041.63;4500385;31;35372;-64
2023/05/05 07:15:36;;;;;;;6.10;2.30;;;;;;;19.25;39.25;100046.41;4493735;31;34780;-64
2023/05/05 07:18:03;;;;;;;3.00;1.58;;;;;;;19.46;39.36;100040.56;4485367;31;32125;-65
2023/05/05 07:20:31;;;;;;;4.28;2.90;;;;;;;19.75;38.53;100042.88;4487941;31;35133;-63
2023/05/05 07:22:58;;;;;;;4.25;2.45;;;;;;;19.74;38.58;100038.47;4500215;31;34051;-63
2023/05/05 07:25:26;;;;;;;3.35;1.92;;;;;;;19.30;39.93;100049.50;4499016;31;34185;-64
2023/05/05 07:27:53;;;;;;;3.67;2.08;;;;;;;19.65;38.98;100038.62;4495440;31;34763;-63
2023/05/05 07:30:21;;;;;;;5.18;2.67;;;;;;;20.09;37.91;100041.88;4488965;31;33883;-65
2023/05/05 07:32:50;;;;;;;5.32;2.53;;;;;;;20.43;37.84;100044.44;4494391;31;33808;-64
2023/05/05 07:35:17;;;;;;;4.03;2.58;;;;;;;19.87;38.80;100043.41;4484596;31;33399;-63
2023/05/05 07:37:45;;;;;;;5.45;2.90;;;;;;;19.41;39.23;100045.62;4492099;31;33399;-63
2023/05/05 07:40:13;;;;;;;4.37;2.47;;;;;;;20.13;38.68;100039.72;4498518;31;33998;-63
2023/05/05 07:42:40;;;;;;;4.03;2.25;;;;;;;20.03;38.51;100042.56;4498247;31;32807;-64
2023/05/05 07:45:08;;;;;;;5.40;2.60;;;;;;;20.13;38.16;100040.56;4492455;31;34132;-64
2023/05/05 07:47:36;;;;;;;2.03;1.75;;;;;;;20.45;37.83;100036.97;4494049;31;33630;-62
2023/05/05 07:50:04;;;;;;;6.87;3.50;;;;;;;20.14;38.27;100035.97;4499753;31;34121;-63
2023/05/05 07:52:31;;;;;;;4.00;2.65;;;;;;;20.64;37.30;100043.97;4498721;31;33784;-64
2023/05/05 07:55:14;;;;;;;6.30;3.15;;;;;;;20.99;37.40;100033.66;4500547;31;33981;-63
2023/05/05 07:57:42;;;;;;;4.97;2.05;;;;;;;21.22;37.27;100032.88;4496539;31;33514;-65
2023/05/05 08:00:10;;;;;;;4.95;2.97;;;;;;;20.86;37.42;100036.91;4498564;31;34873;-63
2023/05/05 08:02:38;;;;;;;5.45;2.78;;;;;;;20.27;38.79;100041.75;4493233;31;33931;-62
2023/05/05 08:05:06;;;;;;;4.87;2.25;;;;;;;19.76;39.82;100043.72;4495872;31;34090;-63
2023/05/05 08:07:37;;;;;;;6.00;3.55;;;;;;;20.58;38.55;100041.09;4489874;31;34800;-62
2023/05/05 08:10:04;;;;;;;8.55;3.65;;;;;;;20.98;37.96;100036.56;4488595;31;33564;-64
2023/05/05 08:12:32;;;;;;;5.37;2.75;;;;;;;20.50;39.14;100047.31;4497300;31;33897;-63
2023/05/05 08:15:00;;;;;;;7.00;3.62;;;;;;;20.65;38.17;100037.50;4495984;31;34047;-65
2023/05/05 08:17:27;;;;;;;6.07;3.25;;;;;;;20.98;37.58;100034.69;4491217;31;33376;-63
2023/05/05 08:19:55;;;;;;;4.87;2.80;;;;;;;21.20;37.27;100035.81;4500360;31;34470;-63
2023/05/05 08:22:22;;;;;;;6.32;2.90;;;;;;;21.13;37.93;100041.09;4493126;31;33829;-64
2023/05/05 08:24:50;;;;;;;8.02;3.28;;;;;;;21.02;38.32;100036.03;4500112;31;34286;-63
2023/05/05 08:27:18;;;;;;;6.90;3.25;;;;;;;21.22;37.62;100036.47;4497384;31;33608;-63
2023/05/05 08:29:45;;;;;;;6.05;2.78;;;;;;;21.36;37.80;100037.63;4494813;31;33761;-65
2023/05/05 08:32:15;;;;;;;8.27;3.00;;;;;;;20.42;39.47;100031.88;4489900;31;33674;-64
2023/05/05 08:34:42;;;;;;;7.87;2.95;;;;;;;21.07;38.76;100032.78;4494670;31;34047;-62
2023/05/05 08:37:10;;;;;;;6.10;2.47;;;;;;;21.77;38.18;100034.69;4486116;31;34036;-63
2023/05/05 08:39:37;;;;;;;6.07;2.95;;;;;;;22.38;37.04;100038.34;4486128;31;33894;-65
2023/05/05 08:42:05;;;;;;;6.03;2.90;;;;;;;22.24;36.01;100039.12;4487838;31;33824;-64
2023/05/05 08:44:32;;;;;;;7.72;3.97;;;;;;;21.12;37.75;100041.25;4494822;31;35285;-62
2023/05/05 08:47:00;;;;;;;6.68;3.92;;;;;;;21.68;37.47;100030.31;4489196;31;33149;-63
2023/05/05 08:49:31;;;;;;;6.65;3.33;;;;;;;21.30;37.45;100038.31;4483523;31;33961;-63
2023/05/05 08:52:00;;;;;;;11.40;4.20;;;;;;;21.62;37.34;100032.72;4485874;31;33680;-63
2023/05/05 08:54:29;;;;;;;6.32;2.92;;;;;;;21.66;37.47;100035.09;4485365;31;33916;-64
2023/05/05 08:57:00;;;;;;;6.78;3.70;;;;;;;21.80;37.19;100024.28;4488153;31;33238;-65
2023/05/05 08:59:31;;;;;;;6.07;4.15;;;;;;;21.93;36.99;100029.12;4483750;32;33139;-63
2023/05/05 09:02:00;;;;;;;8.52;4.43;;;;;;;22.14;37.26;100027.59;4489183;31;35221;-62
2023/05/05 09:04:28;;;;;;;8.68;4.50;;;;;;;22.70;35.73;100030.87;4498270;31;32581;-64
2023/05/05 09:06:58;;;;;;;7.55;3.72;;;;;;;22.34;36.46;100026.09;4495596;31;33767;-63
2023/05/05 09:09:26;;;;;;;7.37;4.62;;;;;;;22.19;36.55;100023.34;4487002;31;32545;-63
2023/05/05 09:11:54;;;;;;;5.22;3.35;;;;;;;22.74;35.25;100018.56;4489735;31;35120;-63
2023/05/05 09:14:22;;;;;;;6.12;3.20;;;;;;;22.99;35.22;100030.94;4484840;31;33994;-63
2023/05/05 09:16:50;;;;;;;10.30;4.20;;;;;;;22.74;35.59;100019.41;4485828;31;33725;-64
2023/05/05 09:19:17;;;;;;;8.20;3.90;;;;;;;22.87;34.86;100017.91;4486869;31;35007;-63
2023/05/05 09:21:48;;;;;;;6.45;3.12;;;;;;;23.27;35.06;100015.72;4487139;31;35041;-64
2023/05/05 09:24:16;;;;;;;7.97;4.43;;;;;;;23.47;34.46;100020.41;4496477;31;35328;-65
2023/05/05 09:26:45;;;;;;;18.30;4.95;;;;;;;23.56;33.44;100007.47;4490576;31;33832;-64
2023/05/05 09:29:19;;;;;;;7.32;3.83;;;;;;;23.38;34.34;100007.91;4498664;31;36427;-64
2023/05/05 09:32:04;;;;;;;12.82;3.33;;;;;;;23.01;34.88;100006.16;4488555;31;33629;-62
2023/05/05 09:34:33;;;;;;;5.55;3.50;;;;;;;23.06;34.43;99998.25;4489587;31;35025;-65
2023/05/05 09:37:02;;;;;;;7.85;3.53;;;;;;;23.63;33.90;99988.44;4487331;31;34175;-64
2023/05/05 09:39:29;;;;;;;14.20;3.60;;;;;;;23.16;36.18;99998.81;4487297;31;31906;-63
2023/05/05 09:41:57;;;;;;;9.63;4.85;;;;;;;23.37;35.36;99991.69;4480830;31;34293;-62
2023/05/05 09:44:36;;;;;;;5.60;3.37;;;;;;;22.99;35.11;99986.41;4486382;31;34749;-63
2023/05/05 09:47:03;;;;;;;8.27;4.22;;;;;;;23.24;34.44;99992.38;4484470;31;33729;-64
2023/05/05 09:49:38;;;;;;;;;;;;;;;23.93;33.50;99986.47;4488288;31;33640;-62
2023/05/05 09:52:13;;;;;;;6.82;3.92;;;;;;;23.79;33.49;99988.22;4489540;31;34097;-62
2023/05/05 09:54:42;;;;;;;7.28;3.30;;;;;;;23.57;33.58;99994.69;4494469;31;34302;-63
2023/05/05 09:57:32;;;;;;;6.55;3.58;;;;;;;24.25;32.28;99986.97;4489130;31;33479;-62
2023/05/05 10:00:01;;;;;;;5.43;3.35;;;;;;;24.94;31.84;99977.97;4495019;31;33537;-62
2023/05/05 10:02:38;;;;;;;6.18;3.95;;;;;;;25.06;30.97;99974.47;4488375;31;33372;-64
2023/05/05 10:05:14;;;;;;;8.52;4.40;;;;;;;25.17;31.20;99975.84;4487843;31;35252;-63
2023/05/05 10:07:44;;;;;;;5.72;3.47;;;;;;;25.20;31.47;99975.41;4487266;31;34032;-65
2023/05/05 10:10:14;;;;;;;7.55;4.07;;;;;;;24.89;30.62;99978.59;4491610;31;33825;-62
2023/05/05 10:12:45;;;;;;;6.18;2.92;;;;;;;24.97;30.43;99978.41;4486556;31;33958;-64
2023/05/05 10:15:14;;;;;;;5.28;3.67;;;;;;;25.50;30.00;99966.88;4494432;31;35312;-65
2023/05/05 10:17:48;;;;;;;5.62;3.83;;;;;;;25.72;29.41;99964.81;4488778;31;34587;-64
2023/05/05 10:20:19;;;;;;;8.95;3.55;;;;;;;25.99;28.66;99971.22;4487357;31;33978;-63
2023/05/05 10:22:51;;;;;;;5.65;3.37;;;;;;;26.09;29.41;99971.63;4483869;31;33731;-63
2023/05/05 10:25:30;;;;;;;7.87;3.87;;;;;;;26.15;29.42;99969.97;4486965;31;34931;-63
2023/05/05 10:28:05;;;;;;;6.18;3.03;;;;;;;25.94;29.60;99962.75;4494443;31;33415;-66
2023/05/05 10:30:36;;;;;;;4.97;3.15;;;;;;;26.63;27.38;99951.38;4494522;31;33812;-63
2023/05/05 10:33:11;;;;;;;5.12;3.42;;;;;;;26.23;28.86;99956.88;4483724;31;33225;-64
2023/05/05 10:36:00;;;;;;;7.18;4.32;;;;;;;26.53;28.97;99948.22;4484754;31;33917;-64
2023/05/05 10:38:29;;;;;;;12.27;4.40;;;;;;;26.19;29.60;99952.00;4491849;31;32935;-64
2023/05/05 10:40:59;;;;;;;7.50;4.20;;;;;;;26.38;29.36;99947.56;4483077;31;34710;-64
2023/05/05 10:43:28;;;;;;;6.07;3.33;;;;;;;26.57;29.38;99945.88;4489743;31;33242;-64
2023/05/05 10:45:57;;;;;;;7.60;4.10;;;;;;;26.54;28.85;99938.91;4484855;31;33887;-66
2023/05/05 10:49:00;;;;;;;6.10;4.00;;;;;;;27.09;27.81;99931.13;4485773;31;33381;-63
2023/05/05 10:51:37;;;;;;;7.18;5.12;;;;;;;27.28;28.99;99939.53;4482386;31;33675;-64
2023/05/05 10:54:15;;;;;;;8.88;5.00;;;;;;;27.12;28.42;99933.44;4487819;31;33716;-65
2023/05/05 10:56:43;;;;;;;7.70;4.40;;;;;;;27.01;28.61;99928.66;4489884;31;34100;-62
2023/05/05 10:59:35;;;;;;;8.43;4.90;;;;;;;27.22;28.94;99923.94;4484388;31;33620;-65
2023/05/05 11:02:22;;;;;;;7.55;4.15;;;;;;;27.14;28.51;99923.13;4484184;31;33758;-65
2023/05/05 11:05:13;;;;;;;7.90;5.20;;;;;;;27.10;28.20;99924.59;4485754;31;34976;-63
2023/05/05 11:07:42;;;;;;;8.20;3.55;;;;;;;27.02;27.97;99916.59;4486002;31;32966;-64
2023/05/05 11:10:11;;;;;;;7.53;4.40;;;;;;;26.71;28.89;99912.72;4486034;31;33595;-64
2023/05/05 11:12:51;;;;;;;6.28;3.67;;;;;;;26.59;28.58;99906.19;4486723;31;32906;-63
2023/05/05 11:15:25;;;;;;;7.53;3.70;;;;;;;26.69;29.10;99906.59;4485858;31;33908;-65
2023/05/05 11:17:56;;;;;;;10.23;4.25;;;;;;;26.61;29.56;99905.97;4485384;31;32944;-63
2023/05/05 11:20:39;;;;;;;8.80;4.75;;;;;;;26.71;29.30;99903.63;4483382;31;33426;-63
2023/05/05 11:23:07;;;;;;;7.95;3.40;;;;;;;26.99;28.76;99900.56;4489884;31;33637;-63
2023/05/05 11:25:40;;;;;;;7.25;4.57;;;;;;;26.67;29.80;99907.84;4485776;31;33960;-64
2023/05/05 11:28:11;;;;;;;7.03;4.28;;;;;;;26.97;28.92;99905.44;4492580;31;33930;-65
2023/05/05 11:30:54;;;;;;;10.05;5.05;;;;;;;26.90;29.47;99905.47;4491424;31;33631;-64
2023/05/05 11:33:28;;;;;;;8.32;4.62;;;;;;;27.13;28.37;99893.97;4490877;31;33896;-63
2023/05/05 11:36:06;;;;;;;16.42;5.53;;;;;;;26.87;28.50;99891.31;4488420;31;34265;-63
2023/05/05 11:39:11;;;;;;;6.37;3.87;;;;;;;27.26;28.07;99890.31;4488119;31;33963;-64
2023/05/05 11:41:56;;;;;;;7.47;3.55;;;;;;;27.40;29.46;99885.56;4488874;31;34429;-64
2023/05/05 11:44:33;;;;;;;5.90;3.70;;;;;;;27.46;26.91;99876.44;4480852;31;33829;-65